EZY64Y EGKK-EGSS
Flight info
| Callsign | EZY64Y |
|---|---|
| Flight time | 0h 26m |
| Altitude | 9000 |
| Route | FRANE1Z FRANE DCT DET DET2A |
| Aircraft | A20N/M-SDE2E3FGHIRWXY/LB1 |
Departure
| Time | 2026-05-04 12:52 |
|---|---|
| Airport | London Gatwick Airport (EGKK) |
Arrival
| Time | 2026-05-04 13:18 |
|---|---|
| Airport | London Stansted Airport (EGSS) |
| Time | Latitude | Longitude | Altitude | Speed | Heading |
|---|---|---|---|---|---|
| 2026-05-04 12:32 | 51.15523 | -0.16651 | 205 ft | 0 kts | 348° |
| 2026-05-04 12:41 | 51.15512 | -0.16648 | 214 ft | 5 kts | 348° |
| 2026-05-04 12:41 | 51.15461 | -0.16605 | 206 ft | 8 kts | 308° |
| 2026-05-04 12:41 | 51.15455 | -0.16591 | 214 ft | 0 kts | 259° |
| 2026-05-04 12:44 | 51.15453 | -0.16607 | 211 ft | 3 kts | 258° |
| 2026-05-04 12:44 | 51.15443 | -0.16663 | 205 ft | 8 kts | 253° |
| 2026-05-04 12:44 | 51.15404 | -0.16722 | 210 ft | 10 kts | 218° |
| 2026-05-04 12:45 | 51.15363 | -0.16854 | 206 ft | 16 kts | 255° |
| 2026-05-04 12:45 | 51.15336 | -0.17061 | 208 ft | 25 kts | 259° |
| 2026-05-04 12:45 | 51.15307 | -0.17308 | 205 ft | 23 kts | 266° |
| 2026-05-04 12:45 | 51.15281 | -0.17556 | 204 ft | 22 kts | 258° |
| 2026-05-04 12:46 | 51.15251 | -0.17781 | 204 ft | 20 kts | 258° |
| 2026-05-04 12:46 | 51.15225 | -0.17982 | 208 ft | 18 kts | 259° |
| 2026-05-04 12:46 | 51.15203 | -0.18162 | 207 ft | 15 kts | 256° |
| 2026-05-04 12:46 | 51.15180 | -0.18317 | 206 ft | 14 kts | 257° |
| 2026-05-04 12:47 | 51.15161 | -0.18455 | 206 ft | 12 kts | 258° |
| 2026-05-04 12:47 | 51.15118 | -0.18784 | 203 ft | 42 kts | 257° |
| 2026-05-04 12:47 | 51.15068 | -0.19152 | 209 ft | 23 kts | 258° |
| 2026-05-04 12:47 | 51.15037 | -0.19376 | 211 ft | 18 kts | 258° |
| 2026-05-04 12:48 | 51.15012 | -0.19550 | 213 ft | 14 kts | 257° |
| 2026-05-04 12:48 | 51.14994 | -0.19683 | 205 ft | 11 kts | 257° |
| 2026-05-04 12:48 | 51.14980 | -0.19780 | 209 ft | 7 kts | 257° |
| 2026-05-04 12:48 | 51.14972 | -0.19834 | 213 ft | 3 kts | 257° |
| 2026-05-04 12:49 | 51.14970 | -0.19849 | 213 ft | 0 kts | 257° |
| 2026-05-04 12:49 | 51.14942 | -0.20042 | 213 ft | 36 kts | 257° |
| 2026-05-04 12:50 | 51.14891 | -0.20418 | 203 ft | 32 kts | 258° |
| 2026-05-04 12:50 | 51.14851 | -0.20738 | 207 ft | 28 kts | 259° |
| 2026-05-04 12:50 | 51.14813 | -0.21013 | 210 ft | 23 kts | 256° |
| 2026-05-04 12:50 | 51.14775 | -0.21247 | 204 ft | 20 kts | 257° |
| 2026-05-04 12:51 | 51.14706 | -0.21380 | 208 ft | 14 kts | 178° |
| 2026-05-04 12:51 | 51.14606 | -0.21334 | 211 ft | 13 kts | 154° |
| 2026-05-04 12:51 | 51.14541 | -0.21261 | 207 ft | 11 kts | 137° |
| 2026-05-04 12:51 | 51.14511 | -0.21177 | 212 ft | 6 kts | 86° |
| 2026-05-04 12:52 | 51.14517 | -0.21133 | 208 ft | 16 kts | 77° |
| 2026-05-04 12:52 | 51.14615 | -0.20449 | 208 ft | 110 kts | 77° |
| 2026-05-04 12:52 | 51.14834 | -0.18850 | 586 ft | 162 kts | 78° |
| 2026-05-04 12:52 | 51.15053 | -0.17084 | 1908 ft | 167 kts | 79° |
| 2026-05-04 12:53 | 51.15285 | -0.15196 | 3014 ft | 184 kts | 77° |
| 2026-05-04 12:53 | 51.15575 | -0.13105 | 3993 ft | 200 kts | 77° |
| 2026-05-04 12:53 | 51.15902 | -0.10882 | 4958 ft | 218 kts | 77° |
| 2026-05-04 12:53 | 51.16264 | -0.08437 | 5939 ft | 236 kts | 77° |
| 2026-05-04 12:54 | 51.16632 | -0.05844 | 7103 ft | 244 kts | 78° |
| 2026-05-04 12:54 | 51.16995 | -0.03139 | 7894 ft | 272 kts | 78° |
| 2026-05-04 12:54 | 51.17405 | 0.00167 | 7897 ft | 328 kts | 80° |
| 2026-05-04 12:54 | 51.17820 | 0.03774 | 8163 ft | 330 kts | 81° |
| 2026-05-04 12:55 | 51.18330 | 0.07329 | 8620 ft | 330 kts | 71° |
| 2026-05-04 12:55 | 51.19366 | 0.10623 | 9159 ft | 336 kts | 57° |
| 2026-05-04 12:55 | 51.20822 | 0.13581 | 9238 ft | 341 kts | 49° |
| 2026-05-04 12:55 | 51.22369 | 0.16412 | 9135 ft | 337 kts | 49° |
| 2026-05-04 12:56 | 51.23914 | 0.19218 | 9006 ft | 337 kts | 49° |
| 2026-05-04 12:56 | 51.25444 | 0.22051 | 8883 ft | 336 kts | 49° |
| 2026-05-04 12:56 | 51.26960 | 0.24880 | 8820 ft | 334 kts | 49° |
| 2026-05-04 12:56 | 51.28469 | 0.27700 | 9216 ft | 337 kts | 49° |
| 2026-05-04 12:57 | 51.30037 | 0.30619 | 9320 ft | 363 kts | 49° |
| 2026-05-04 12:57 | 51.31698 | 0.33685 | 9194 ft | 362 kts | 49° |
| 2026-05-04 12:57 | 51.33344 | 0.36719 | 9059 ft | 361 kts | 49° |
| 2026-05-04 12:57 | 51.34988 | 0.39747 | 8915 ft | 360 kts | 49° |
| 2026-05-04 12:58 | 51.36627 | 0.42765 | 8785 ft | 359 kts | 49° |
| 2026-05-04 12:58 | 51.38260 | 0.45773 | 8725 ft | 356 kts | 49° |
| 2026-05-04 12:58 | 51.39827 | 0.48856 | 8958 ft | 358 kts | 52° |
| 2026-05-04 12:58 | 51.41364 | 0.52011 | 9184 ft | 360 kts | 52° |
| 2026-05-04 12:59 | 51.42968 | 0.55113 | 9298 ft | 360 kts | 44° |
| 2026-05-04 12:59 | 51.45004 | 0.57417 | 9447 ft | 361 kts | 25° |
| 2026-05-04 12:59 | 51.47389 | 0.58640 | 9466 ft | 361 kts | 9° |
| 2026-05-04 12:59 | 51.49862 | 0.59269 | 9179 ft | 358 kts | 8° |
| 2026-05-04 13:00 | 51.52301 | 0.59902 | 8949 ft | 353 kts | 8° |
| 2026-05-04 13:00 | 51.54737 | 0.60566 | 8927 ft | 356 kts | 8° |
| 2026-05-04 13:00 | 51.57169 | 0.61241 | 8905 ft | 355 kts | 8° |
| 2026-05-04 13:00 | 51.59595 | 0.61955 | 8922 ft | 354 kts | 10° |
| 2026-05-04 13:01 | 51.61947 | 0.62223 | 8988 ft | 324 kts | 358° |
| 2026-05-04 13:01 | 51.64051 | 0.62095 | 9006 ft | 288 kts | 355° |
| 2026-05-04 13:01 | 51.66053 | 0.61882 | 9020 ft | 289 kts | 354° |
| 2026-05-04 13:01 | 51.68055 | 0.61660 | 9027 ft | 287 kts | 355° |
| 2026-05-04 13:02 | 51.70050 | 0.61451 | 9037 ft | 287 kts | 355° |
| 2026-05-04 13:02 | 51.72051 | 0.61247 | 9038 ft | 288 kts | 355° |
| 2026-05-04 13:02 | 51.74044 | 0.61056 | 9020 ft | 287 kts | 355° |
| 2026-05-04 13:02 | 51.76036 | 0.60862 | 9020 ft | 287 kts | 355° |
| 2026-05-04 13:03 | 51.78027 | 0.60656 | 9017 ft | 287 kts | 354° |
| 2026-05-04 13:03 | 51.80025 | 0.60430 | 9013 ft | 287 kts | 354° |
| 2026-05-04 13:03 | 51.81990 | 0.59989 | 8879 ft | 285 kts | 346° |
| 2026-05-04 13:03 | 51.83906 | 0.59202 | 8394 ft | 283 kts | 343° |
| 2026-05-04 13:04 | 51.85793 | 0.58331 | 7869 ft | 280 kts | 342° |
| 2026-05-04 13:04 | 51.87657 | 0.57432 | 7423 ft | 281 kts | 342° |
| 2026-05-04 13:04 | 51.89513 | 0.56515 | 7187 ft | 276 kts | 342° |
| 2026-05-04 13:04 | 51.91345 | 0.55593 | 7093 ft | 276 kts | 342° |
| 2026-05-04 13:05 | 51.93110 | 0.54697 | 7035 ft | 242 kts | 342° |
| 2026-05-04 13:05 | 51.94528 | 0.53984 | 7040 ft | 202 kts | 342° |
| 2026-05-04 13:05 | 51.95790 | 0.53351 | 7050 ft | 181 kts | 341° |
| 2026-05-04 13:05 | 51.96965 | 0.52764 | 7030 ft | 174 kts | 342° |
| 2026-05-04 13:06 | 51.98121 | 0.52187 | 7023 ft | 177 kts | 342° |
| 2026-05-04 13:06 | 51.99297 | 0.51598 | 7027 ft | 177 kts | 342° |
| 2026-05-04 13:06 | 52.00366 | 0.50689 | 7026 ft | 175 kts | 307° |
| 2026-05-04 13:06 | 52.00622 | 0.48832 | 6965 ft | 177 kts | 258° |
| 2026-05-04 13:07 | 52.00293 | 0.46908 | 6631 ft | 178 kts | 253° |
| 2026-05-04 13:07 | 51.99905 | 0.44844 | 5732 ft | 204 kts | 252° |
| 2026-05-04 13:07 | 51.99463 | 0.42585 | 4965 ft | 211 kts | 252° |
| 2026-05-04 13:07 | 51.99001 | 0.40312 | 4443 ft | 214 kts | 251° |
| 2026-05-04 13:08 | 51.98537 | 0.38077 | 4179 ft | 206 kts | 251° |
| 2026-05-04 13:08 | 51.98076 | 0.35875 | 4063 ft | 206 kts | 251° |
| 2026-05-04 13:08 | 51.97616 | 0.33683 | 4019 ft | 205 kts | 251° |
| 2026-05-04 13:08 | 51.97154 | 0.31485 | 3996 ft | 206 kts | 251° |
| 2026-05-04 13:09 | 51.96692 | 0.29292 | 3987 ft | 206 kts | 251° |
| 2026-05-04 13:09 | 51.96229 | 0.27100 | 3982 ft | 206 kts | 251° |
| 2026-05-04 13:09 | 51.95762 | 0.24891 | 3827 ft | 207 kts | 251° |
| 2026-05-04 13:09 | 51.95251 | 0.22730 | 3291 ft | 205 kts | 243° |
| 2026-05-04 13:10 | 51.94532 | 0.20733 | 2859 ft | 205 kts | 238° |
| 2026-05-04 13:10 | 51.93765 | 0.18816 | 2644 ft | 202 kts | 237° |
| 2026-05-04 13:10 | 51.92983 | 0.16925 | 2557 ft | 202 kts | 236° |
| 2026-05-04 13:10 | 51.92194 | 0.15043 | 2525 ft | 202 kts | 236° |
| 2026-05-04 13:11 | 51.91396 | 0.13153 | 2506 ft | 203 kts | 236° |
| 2026-05-04 13:11 | 51.90547 | 0.11341 | 2509 ft | 203 kts | 226° |
| 2026-05-04 13:11 | 51.89529 | 0.09763 | 2505 ft | 203 kts | 223° |
| 2026-05-04 13:11 | 51.88469 | 0.08241 | 2511 ft | 204 kts | 221° |
| 2026-05-04 13:12 | 51.87400 | 0.06743 | 2513 ft | 204 kts | 221° |
| 2026-05-04 13:12 | 51.86323 | 0.05250 | 2517 ft | 203 kts | 221° |
| 2026-05-04 13:12 | 51.85250 | 0.03774 | 2517 ft | 203 kts | 220° |
| 2026-05-04 13:12 | 51.84167 | 0.02289 | 2522 ft | 204 kts | 220° |
| 2026-05-04 13:13 | 51.83083 | 0.00803 | 2518 ft | 204 kts | 220° |
| 2026-05-04 13:13 | 51.81897 | -0.00428 | 2517 ft | 205 kts | 194° |
| 2026-05-04 13:13 | 51.80532 | -0.00079 | 2536 ft | 204 kts | 147° |
| 2026-05-04 13:13 | 51.79470 | 0.01438 | 2530 ft | 204 kts | 134° |
| 2026-05-04 13:14 | 51.78511 | 0.03043 | 2521 ft | 187 kts | 132° |
| 2026-05-04 13:14 | 51.77636 | 0.04568 | 2529 ft | 187 kts | 131° |
| 2026-05-04 13:14 | 51.76934 | 0.06297 | 2529 ft | 185 kts | 100° |
| 2026-05-04 13:14 | 51.77240 | 0.08231 | 2527 ft | 184 kts | 47° |
| 2026-05-04 13:15 | 51.78203 | 0.09547 | 2515 ft | 171 kts | 36° |
| 2026-05-04 13:15 | 51.79080 | 0.10575 | 2507 ft | 153 kts | 33° |
| 2026-05-04 13:15 | 51.79964 | 0.11553 | 2480 ft | 154 kts | 33° |
| 2026-05-04 13:15 | 51.80850 | 0.12532 | 2237 ft | 152 kts | 34° |
| 2026-05-04 13:16 | 51.81711 | 0.13520 | 2029 ft | 151 kts | 35° |
| 2026-05-04 13:16 | 51.82263 | 0.14201 | 1894 ft | 150 kts | 37° |
| 2026-05-04 13:16 | 51.83048 | 0.15305 | 1694 ft | 148 kts | 41° |
| 2026-05-04 13:16 | 51.83796 | 0.16464 | 1518 ft | 150 kts | 43° |
| 2026-05-04 13:17 | 51.84553 | 0.17608 | 1363 ft | 149 kts | 41° |
| 2026-05-04 13:17 | 51.85320 | 0.18765 | 1165 ft | 150 kts | 41° |
| 2026-05-04 13:17 | 51.86088 | 0.19899 | 900 ft | 149 kts | 41° |
| 2026-05-04 13:17 | 51.86830 | 0.21005 | 649 ft | 147 kts | 41° |
| 2026-05-04 13:18 | 51.87583 | 0.22110 | 429 ft | 146 kts | 43° |
| 2026-05-04 13:18 | 51.88289 | 0.23188 | 354 ft | 128 kts | 43° |
| 2026-05-04 13:18 | 51.88792 | 0.23936 | 354 ft | 63 kts | 41° |
| 2026-05-04 13:18 | 51.89001 | 0.24247 | 353 ft | 30 kts | 49° |
| 2026-05-04 13:19 | 51.89091 | 0.24499 | 360 ft | 23 kts | 70° |